Time;durP1;ratioP1;P1;durP2;ratioP2;P2;SDS_P1;SDS_P2;PMS_P1;PMS_P2;Temp;Humidity;BMP_temperature;BMP_pressure;BME280_temperature;BME280_humidity;BME280_pressure;Samples;Min_cycle;Max_cycle;Signal;HPM_P1;HPM_P2
2022/06/10 00:00:24;;;;;;;1.73;1.02;;;21.80;56.40;;;;;;5057627;28;20040;-63
2022/06/10 00:02:50;;;;;;;2.30;1.02;;;21.80;56.40;;;;;;5058479;28;20119;-63
2022/06/10 00:05:19;;;;;;;3.22;1.15;;;21.80;56.40;;;;;;5056555;28;20028;-63
2022/06/10 00:07:45;;;;;;;1.98;0.90;;;21.80;56.30;;;;;;5057505;28;20173;-63
2022/06/10 00:10:13;;;;;;;2.47;1.00;;;21.80;56.30;;;;;;5050867;28;20062;-63
2022/06/10 00:12:39;;;;;;;3.13;1.30;;;21.80;56.30;;;;;;5056260;28;20081;-63
2022/06/10 00:15:06;;;;;;;2.03;1.00;;;21.80;56.30;;;;;;5054730;28;20085;-63
2022/06/10 00:17:32;;;;;;;2.05;1.02;;;21.70;56.20;;;;;;5046600;28;20037;-62
2022/06/10 00:19:58;;;;;;;2.85;1.08;;;21.70;56.20;;;;;;5056305;28;20108;-62
2022/06/10 00:22:24;;;;;;;2.53;1.13;;;21.80;56.20;;;;;;5036330;28;20075;-63
2022/06/10 00:24:51;;;;;;;2.63;1.40;;;21.80;56.20;;;;;;5057019;28;20070;-62
2022/06/10 00:27:20;;;;;;;1.63;1.10;;;21.70;56.20;;;;;;5037734;28;20409;-63
2022/06/10 00:29:46;;;;;;;3.88;1.30;;;21.80;56.20;;;;;;5054338;28;20068;-63
2022/06/10 00:32:11;;;;;;;1.77;1.13;;;21.70;56.10;;;;;;5049343;28;20082;-63
2022/06/10 00:34:37;;;;;;;2.72;1.10;;;21.80;56.10;;;;;;5048053;28;20053;-62
2022/06/10 00:37:05;;;;;;;1.65;0.98;;;21.80;56.10;;;;;;5041808;28;20557;-62
2022/06/10 00:39:30;;;;;;;2.88;1.15;;;21.80;56.10;;;;;;5054644;28;20868;-63
2022/06/10 00:41:56;;;;;;;3.15;1.08;;;21.70;56.10;;;;;;5057549;28;20040;-63
2022/06/10 00:44:31;;;;;;;3.38;1.50;;;21.80;56.20;;;;;;5053729;28;20070;-63
2022/06/10 00:46:57;;;;;;;2.08;1.15;;;21.70;56.30;;;;;;5056444;28;20036;-63
2022/06/10 00:49:23;;;;;;;1.35;0.90;;;21.80;56.50;;;;;;5056831;28;20044;-63
2022/06/10 00:51:53;;;;;;;1.75;1.23;;;21.70;56.60;;;;;;5056683;28;20052;-63
2022/06/10 00:54:43;;;;;;;2.97;1.38;;;21.80;56.90;;;;;;5052967;28;20036;-63
2022/06/10 00:57:19;;;;;;;3.50;1.20;;;21.80;57.00;;;;;;5055986;28;20056;-63
2022/06/10 00:59:53;;;;;;;1.42;1.10;;;21.70;57.80;;;;;;5055618;28;20102;-63
2022/06/10 01:02:25;;;;;;;1.65;0.90;;;21.70;57.00;;;;;;5052192;28;20045;-63
2022/06/10 01:04:53;;;;;;;3.28;1.30;;;21.80;56.90;;;;;;5050922;28;20051;-63
2022/06/10 01:07:24;;;;;;;3.78;1.13;;;21.70;56.80;;;;;;5057916;28;20116;-63
2022/06/10 01:09:51;;;;;;;2.08;0.90;;;21.70;56.90;;;;;;5054417;28;20041;-63
2022/06/10 01:12:53;;;;;;;1.23;1.05;;;21.80;56.80;;;;;;5053480;28;20037;-63
2022/06/10 01:15:23;;;;;;;1.88;0.90;;;21.70;56.70;;;;;;5054326;28;20380;-62
2022/06/10 01:18:04;;;;;;;3.00;1.50;;;21.70;56.60;;;;;;5053374;28;20153;-62
2022/06/10 01:20:31;;;;;;;;;;;21.70;56.60;;;;;;5053833;28;20494;-63
2022/06/10 01:23:18;;;;;;;1.67;0.95;;;21.70;56.60;;;;;;5052133;28;19921;-63
2022/06/10 01:26:05;;;;;;;3.25;0.98;;;21.70;56.70;;;;;;5054579;28;20404;-63
2022/06/10 01:28:56;;;;;;;2.55;1.02;;;21.70;56.60;;;;;;5037404;28;20044;-63
2022/06/10 01:31:29;;;;;;;2.42;0.90;;;21.70;56.60;;;;;;5055052;28;20048;-63
2022/06/10 01:34:22;;;;;;;2.42;1.20;;;21.70;56.50;;;;;;5054669;28;20495;-63
2022/06/10 01:36:57;;;;;;;2.13;1.17;;;21.70;56.40;;;;;;5056259;28;20051;-63
2022/06/10 01:39:34;;;;;;;1.92;1.00;;;21.70;56.40;;;;;;5053839;28;20084;-63
2022/06/10 01:42:00;;;;;;;1.90;0.80;;;21.70;56.40;;;;;;5054558;28;20488;-63
2022/06/10 01:44:59;;;;;;;2.30;1.10;;;21.70;56.40;;;;;;5054398;28;20044;-63
2022/06/10 01:47:54;;;;;;;2.33;0.90;;;21.70;56.40;;;;;;5050036;28;20040;-63
2022/06/10 01:50:38;;;;;;;1.48;0.90;;;21.70;56.30;;;;;;5050805;28;20045;-62
2022/06/10 01:53:14;;;;;;;2.63;1.00;;;21.70;56.30;;;;;;5049641;28;20037;-63
2022/06/10 01:55:51;;;;;;;4.07;1.00;;;21.70;56.30;;;;;;5049356;28;20040;-63
2022/06/10 01:58:36;;;;;;;2.10;1.00;;;21.70;56.30;;;;;;5052048;28;20984;-63
2022/06/10 02:01:07;;;;;;;1.92;1.10;;;21.70;56.30;;;;;;5050858;28;20856;-63
2022/06/10 02:03:43;;;;;;;2.80;1.00;;;21.70;56.30;;;;;;5054980;28;20400;-62
2022/06/10 02:06:16;;;;;;;2.30;1.00;;;21.70;56.20;;;;;;5054151;28;20040;-63
2022/06/10 02:08:52;;;;;;;2.13;1.10;;;21.70;56.10;;;;;;5053769;28;20727;-63
2022/06/10 02:11:22;;;;;;;1.63;0.82;;;21.70;56.10;;;;;;5051580;28;20040;-63
2022/06/10 02:14:13;;;;;;;1.05;0.80;;;21.60;56.10;;;;;;5053725;28;20045;-63
2022/06/10 02:16:42;;;;;;;1.58;1.00;;;21.70;56.10;;;;;;5031564;28;20055;-63
2022/06/10 02:19:37;;;;;;;2.50;1.10;;;21.70;56.20;;;;;;5052485;28;20135;-63
2022/06/10 02:22:14;;;;;;;1.52;0.75;;;21.60;56.00;;;;;;5054954;28;20527;-63
2022/06/10 02:24:42;;;;;;;2.30;1.05;;;21.70;56.10;;;;;;5050871;28;20670;-63
2022/06/10 02:27:14;;;;;;;2.72;0.98;;;21.60;56.00;;;;;;5052375;28;20040;-63
2022/06/10 02:29:51;;;;;;;2.80;1.00;;;21.60;56.00;;;;;;5036214;28;20133;-63
2022/06/10 02:32:18;;;;;;;2.55;0.90;;;21.60;56.00;;;;;;5035451;28;20119;-63
2022/06/10 02:34:44;;;;;;;2.35;1.10;;;21.60;56.00;;;;;;5053803;28;20045;-63
2022/06/10 02:37:30;;;;;;;3.17;1.15;;;21.60;55.90;;;;;;5052335;28;20404;-63
2022/06/10 02:40:08;;;;;;;1.63;1.08;;;21.60;55.80;;;;;;5033680;28;20995;-62
2022/06/10 02:42:50;;;;;;;2.80;1.00;;;21.60;55.90;;;;;;5051736;28;20041;-62
2022/06/10 02:45:19;;;;;;;1.48;1.00;;;21.60;55.80;;;;;;5054277;28;20037;-63
2022/06/10 02:47:57;;;;;;;2.35;0.90;;;21.60;55.90;;;;;;5052530;28;20036;-63
2022/06/10 02:50:24;;;;;;;2.97;1.10;;;21.60;55.80;;;;;;5051923;28;20172;-63
2022/06/10 02:52:49;;;;;;;1.92;1.00;;;21.60;55.80;;;;;;5051855;28;20067;-63
2022/06/10 02:55:21;;;;;;;1.52;1.13;;;21.60;55.80;;;;;;5051799;28;20032;-63
2022/06/10 03:03:40;;;;;;;2.13;0.77;;;21.60;55.70;;;;;;5053578;28;20041;-63
2022/06/10 03:06:15;;;;;;;2.88;0.98;;;21.60;56.30;;;;;;5053383;28;20043;-63
2022/06/10 03:08:46;;;;;;;2.35;0.80;;;21.60;55.60;;;;;;5053185;28;20041;-63
2022/06/10 03:11:46;;;;;;;2.28;0.85;;;21.60;55.70;;;;;;5053447;28;20041;-63
2022/06/10 03:14:34;;;;;;;1.48;0.80;;;21.60;55.60;;;;;;5053131;28;20367;-63
2022/06/10 03:17:37;;;;;;;2.85;1.10;;;21.60;55.60;;;;;;5053733;28;20090;-62
2022/06/10 03:20:03;;;;;;;2.15;1.02;;;21.60;55.60;;;;;;5050134;28;20139;-63
2022/06/10 03:23:02;;;;;;;1.58;0.82;;;21.60;55.60;;;;;;5054873;28;20124;-63
2022/06/10 03:25:51;;;;;;;2.63;1.27;;;21.60;55.50;;;;;;5052665;28;20106;-63
2022/06/10 03:28:26;;;;;;;3.25;1.13;;;21.60;55.50;;;;;;5052102;28;20392;-63
2022/06/10 03:31:14;;;;;;;1.85;0.80;;;21.60;55.50;;;;;;5052892;28;20048;-63
2022/06/10 03:33:53;;;;;;;1.50;0.70;;;21.50;55.40;;;;;;5052000;28;20037;-63
2022/06/10 03:36:23;;;;;;;1.55;0.90;;;21.60;55.50;;;;;;5053783;28;20052;-62
2022/06/10 03:38:51;;;;;;;3.23;1.30;;;21.60;55.50;;;;;;5055485;28;20089;-62
2022/06/10 03:41:28;;;;;;;3.72;1.20;;;21.60;55.50;;;;;;5057225;28;20370;-63
2022/06/10 03:43:57;;;;;;;2.28;0.90;;;21.60;55.50;;;;;;5038742;28;20131;-62
2022/06/10 03:46:28;;;;;;;1.30;0.75;;;21.60;55.50;;;;;;5051900;28;20045;-62
2022/06/10 03:48:55;;;;;;;2.17;0.90;;;21.50;55.40;;;;;;5050500;28;20044;-62
2022/06/10 03:51:21;;;;;;;3.22;1.10;;;21.50;55.40;;;;;;5056022;28;20068;-63
2022/06/10 03:53:47;;;;;;;1.25;0.80;;;21.60;55.50;;;;;;5056543;28;20029;-63
2022/06/10 03:56:19;;;;;;;3.38;1.02;;;21.50;55.40;;;;;;5055903;28;20039;-63
2022/06/10 03:58:44;;;;;;;3.17;0.98;;;21.60;55.40;;;;;;5056347;28;20048;-63
2022/06/10 04:01:11;;;;;;;1.75;1.00;;;21.50;55.40;;;;;;5054697;28;20044;-63
2022/06/10 04:03:37;;;;;;;3.35;1.27;;;21.50;55.30;;;;;;5057858;28;20048;-63
2022/06/10 04:06:03;;;;;;;1.85;1.10;;;21.50;55.30;;;;;;5044691;28;20045;-63
2022/06/10 04:08:29;;;;;;;1.67;0.90;;;21.50;55.30;;;;;;5054663;28;20136;-63
2022/06/10 04:10:55;;;;;;;2.95;1.25;;;21.50;55.30;;;;;;5055261;28;20044;-63
2022/06/10 04:13:21;;;;;;;1.75;0.80;;;21.50;55.30;;;;;;5041107;28;20102;-62
2022/06/10 04:15:47;;;;;;;4.07;1.08;;;21.50;55.30;;;;;;5056198;28;20028;-63
2022/06/10 04:18:13;;;;;;;2.50;1.00;;;21.50;55.30;;;;;;5056394;28;20491;-63
2022/06/10 04:20:40;;;;;;;1.95;1.20;;;21.50;55.30;;;;;;5055335;28;20041;-63
2022/06/10 04:23:06;;;;;;;3.13;1.27;;;21.50;55.30;;;;;;5056045;28;20050;-63
2022/06/10 04:25:35;;;;;;;2.75;1.02;;;21.50;55.20;;;;;;5055957;28;20040;-63
2022/06/10 04:28:01;;;;;;;1.70;0.95;;;21.50;55.20;;;;;;5054406;28;20087;-63
2022/06/10 04:30:29;;;;;;;1.73;1.00;;;21.50;55.20;;;;;;5054653;28;20493;-62
2022/06/10 04:32:56;;;;;;;2.47;0.95;;;21.50;55.20;;;;;;5056093;28;20142;-63
2022/06/10 04:35:22;;;;;;;1.50;0.90;;;21.50;55.20;;;;;;5054381;28;20044;-63
2022/06/10 04:37:49;;;;;;;2.10;0.88;;;21.50;55.20;;;;;;5055373;28;20033;-63
2022/06/10 04:40:21;;;;;;;1.65;0.88;;;21.50;55.20;;;;;;5055757;28;20029;-63
2022/06/10 04:42:48;;;;;;;1.80;1.10;;;21.50;55.20;;;;;;5054787;28;20032;-63
2022/06/10 04:45:15;;;;;;;2.45;0.85;;;21.50;55.20;;;;;;5056154;28;20077;-63
2022/06/10 04:47:41;;;;;;;3.38;1.15;;;21.50;55.20;;;;;;5055871;28;20032;-63
2022/06/10 04:50:10;;;;;;;2.00;0.82;;;21.50;55.10;;;;;;5039332;28;20492;-63
2022/06/10 04:52:36;;;;;;;2.58;1.20;;;21.50;55.10;;;;;;5053748;28;20033;-63
2022/06/10 04:55:04;;;;;;;1.92;0.70;;;21.50;55.10;;;;;;5053293;28;20045;-63
2022/06/10 04:57:29;;;;;;;1.60;0.77;;;21.50;55.10;;;;;;5034502;28;20041;-63
2022/06/10 04:59:55;;;;;;;4.00;1.20;;;21.50;55.20;;;;;;5038300;28;20440;-63
2022/06/10 05:02:21;;;;;;;3.30;1.10;;;21.50;55.20;;;;;;5051976;28;20064;-63
2022/06/10 05:04:47;;;;;;;2.80;1.00;;;21.50;55.20;;;;;;5050685;28;20067;-64
2022/06/10 05:07:13;;;;;;;2.33;0.95;;;21.50;55.30;;;;;;5039373;28;20111;-63
2022/06/10 05:09:39;;;;;;;2.47;0.90;;;21.50;55.30;;;;;;5053314;28;20813;-63
2022/06/10 05:12:05;;;;;;;2.67;1.13;;;21.50;55.20;;;;;;5042802;28;20043;-64
2022/06/10 05:14:31;;;;;;;1.88;0.90;;;21.50;55.20;;;;;;5050502;28;20037;-63
2022/06/10 05:16:57;;;;;;;4.63;1.10;;;21.50;55.10;;;;;;5055076;28;20036;-64
2022/06/10 05:19:24;;;;;;;1.58;0.90;;;21.50;55.10;;;;;;5046544;28;20145;-63
2022/06/10 05:21:49;;;;;;;1.02;0.90;;;21.50;55.10;;;;;;5040920;28;20071;-62
2022/06/10 05:24:16;;;;;;;2.05;0.90;;;21.50;55.10;;;;;;5029716;28;20478;-63
2022/06/10 05:26:41;;;;;;;2.83;1.10;;;21.50;55.10;;;;;;5054027;28;20096;-64
2022/06/10 05:29:07;;;;;;;2.38;0.95;;;21.50;55.00;;;;;;5054204;28;20112;-63
2022/06/10 05:31:33;;;;;;;2.55;1.15;;;21.50;55.00;;;;;;5053684;28;20038;-63
2022/06/10 05:36:43;;;;;;;3.70;1.20;;;21.50;55.20;;;;;;5055310;28;20396;-63
2022/06/10 05:39:09;;;;;;;2.33;1.38;;;21.50;55.30;;;;;;5032792;28;20094;-64
2022/06/10 05:44:19;;;;;;;3.65;1.20;;;21.40;55.50;;;;;;5053350;28;20075;-62
2022/06/10 05:46:44;;;;;;;3.95;1.48;;;21.50;55.40;;;;;;5039339;28;20255;-62
2022/06/10 05:49:10;;;;;;;2.80;1.20;;;21.50;55.40;;;;;;5043566;28;20036;-62
2022/06/10 05:51:36;;;;;;;4.35;1.65;;;21.50;55.30;;;;;;5053365;28;20374;-63
2022/06/10 05:54:03;;;;;;;6.85;1.67;;;21.50;55.30;;;;;;5051596;28;20043;-62
2022/06/10 05:56:29;;;;;;;4.70;1.27;;;21.50;55.50;;;;;;5054392;28;20127;-62
2022/06/10 05:58:55;;;;;;;4.78;1.75;;;21.50;55.50;;;;;;5053644;28;20049;-64
2022/06/10 06:01:20;;;;;;;5.45;1.55;;;21.50;55.60;;;;;;5047048;28;20037;-62
2022/06/10 06:03:46;;;;;;;3.35;1.35;;;21.50;55.80;;;;;;5035195;28;20049;-62
2022/06/10 06:06:12;;;;;;;4.22;1.50;;;21.50;55.80;;;;;;5041413;28;20090;-62
2022/06/10 06:08:37;;;;;;;6.38;1.55;;;21.50;56.00;;;;;;5052582;28;20055;-63
2022/06/10 06:11:03;;;;;;;4.63;1.50;;;21.50;56.20;;;;;;5055286;28;20028;-64
2022/06/10 06:13:29;;;;;;;6.13;1.65;;;21.50;56.30;;;;;;5052764;28;20040;-62
2022/06/10 06:15:54;;;;;;;3.78;1.88;;;21.50;56.50;;;;;;5055050;28;20096;-62
2022/06/10 06:18:21;;;;;;;4.50;1.80;;;21.50;56.50;;;;;;5041721;28;20044;-62
2022/06/10 06:20:46;;;;;;;6.88;2.17;;;21.50;56.30;;;;;;5038864;28;20047;-63
2022/06/10 06:23:12;;;;;;;4.50;1.48;;;21.50;56.30;;;;;;5032656;28;20384;-62
2022/06/10 06:25:38;;;;;;;5.68;1.80;;;21.50;56.40;;;;;;5055674;28;20122;-63
2022/06/10 06:28:04;;;;;;;5.22;1.55;;;21.50;56.40;;;;;;5053450;28;20036;-62
2022/06/10 06:30:33;;;;;;;4.90;1.80;;;21.50;56.50;;;;;;5054988;28;20036;-62
2022/06/10 06:33:01;;;;;;;5.53;1.77;;;21.40;56.60;;;;;;5054481;28;20041;-62
2022/06/10 06:35:27;;;;;;;4.97;1.92;;;21.40;56.60;;;;;;5055078;28;20374;-62
2022/06/10 06:37:53;;;;;;;4.35;1.58;;;21.50;56.80;;;;;;5055634;28;20054;-62
2022/06/10 06:40:19;;;;;;;6.82;1.77;;;21.40;56.80;;;;;;5049313;28;20524;-62
2022/06/10 06:42:47;;;;;;;4.70;1.70;;;21.50;57.10;;;;;;5046146;28;20032;-62
2022/06/10 06:45:13;;;;;;;7.72;1.60;;;21.50;57.20;;;;;;5035458;28;20033;-62
2022/06/10 06:47:40;;;;;;;4.65;1.75;;;21.50;57.30;;;;;;5055056;28;20037;-62
2022/06/10 06:50:06;;;;;;;5.18;1.80;;;21.40;57.20;;;;;;5053515;28;20040;-62
2022/06/10 06:52:32;;;;;;;3.40;1.50;;;21.50;57.50;;;;;;5054817;28;20124;-62
2022/06/10 06:54:58;;;;;;;6.70;1.92;;;21.50;57.60;;;;;;5046899;28;21516;-62
2022/06/10 06:57:25;;;;;;;4.07;1.65;;;21.50;57.70;;;;;;5040387;28;20032;-63
2022/06/10 06:59:53;;;;;;;7.50;1.60;;;21.50;57.80;;;;;;5051964;28;20119;-63
2022/06/10 07:02:19;;;;;;;5.60;1.60;;;21.50;58.00;;;;;;5047610;28;20067;-62
2022/06/10 07:04:45;;;;;;;4.22;1.92;;;21.50;58.00;;;;;;5054586;28;20068;-63
2022/06/10 07:07:11;;;;;;;5.60;1.85;;;21.50;58.00;;;;;;5054237;28;20120;-62
2022/06/10 07:09:36;;;;;;;3.65;1.67;;;21.50;58.10;;;;;;5052908;28;20595;-63
2022/06/10 07:12:02;;;;;;;3.15;1.50;;;21.50;58.10;;;;;;5055023;28;20025;-62
2022/06/10 07:14:28;;;;;;;6.32;2.15;;;21.50;58.30;;;;;;5056054;28;20037;-62
2022/06/10 07:16:54;;;;;;;3.30;1.75;;;21.50;58.50;;;;;;5057614;28;20095;-62
2022/06/10 07:19:20;;;;;;;7.30;2.03;;;21.50;58.80;;;;;;5055566;28;20527;-62
2022/06/10 07:21:46;;;;;;;4.07;1.80;;;21.50;58.90;;;;;;5056915;28;20044;-62
2022/06/10 07:24:12;;;;;;;4.63;1.98;;;21.50;58.80;;;;;;5037945;28;20090;-62
2022/06/10 07:26:39;;;;;;;6.95;2.15;;;21.50;59.00;;;;;;5057190;28;20037;-63
2022/06/10 07:29:06;;;;;;;6.90;1.98;;;21.50;59.10;;;;;;5056159;28;20438;-63
2022/06/10 07:31:33;;;;;;;5.97;2.22;;;21.50;59.30;;;;;;5056941;28;20037;-63
2022/06/10 07:33:58;;;;;;;4.55;1.83;;;21.40;59.20;;;;;;5054678;28;20486;-63
2022/06/10 07:36:26;;;;;;;5.78;1.90;;;21.50;59.20;;;;;;5054379;28;20032;-62
2022/06/10 07:38:52;;;;;;;6.07;1.98;;;21.50;59.30;;;;;;5056603;28;20060;-62
2022/06/10 07:44:05;;;;;;;3.92;2.03;;;21.50;59.10;;;;;;5055033;28;20064;-63
2022/06/10 07:46:31;;;;;;;4.45;1.67;;;21.50;59.10;;;;;;5057472;28;20316;-63
2022/06/10 07:48:56;;;;;;;5.38;2.05;;;21.50;58.90;;;;;;5055123;28;20524;-62
2022/06/10 07:51:23;;;;;;;7.20;1.90;;;21.50;58.90;;;;;;5053474;28;20909;-62
2022/06/10 07:53:49;;;;;;;3.95;1.65;;;21.50;58.90;;;;;;5054984;28;20044;-63
2022/06/10 07:56:17;;;;;;;5.50;1.70;;;21.50;59.20;;;;;;5054737;28;20037;-63
2022/06/10 07:58:44;;;;;;;5.03;2.00;;;21.50;59.10;;;;;;5055345;28;20051;-61
2022/06/10 08:01:10;;;;;;;3.45;1.75;;;21.50;59.50;;;;;;5055220;28;20036;-61
2022/06/10 08:03:36;;;;;;;5.40;1.77;;;21.50;60.00;;;;;;5041101;28;21214;-66
2022/06/10 08:06:02;;;;;;;3.97;1.50;;;21.50;59.70;;;;;;5058377;28;20047;-62
2022/06/10 08:08:29;;;;;;;6.80;1.70;;;21.50;59.70;;;;;;5054312;28;20380;-62
2022/06/10 08:10:55;;;;;;;5.80;1.50;;;21.50;59.60;;;;;;5053693;28;20028;-62
2022/06/10 08:13:21;;;;;;;4.72;1.63;;;21.50;59.80;;;;;;5055228;28;20069;-62
2022/06/10 08:15:48;;;;;;;4.63;1.58;;;21.50;59.80;;;;;;5055739;28;20068;-62
2022/06/10 08:18:16;;;;;;;5.50;1.60;;;21.50;59.80;;;;;;5054041;28;20055;-62
2022/06/10 08:23:30;;;;;;;4.22;1.35;;;21.50;60.30;;;;;;5056288;28;20575;-62
2022/06/10 08:25:57;;;;;;;4.00;1.60;;;21.50;60.40;;;;;;5056004;28;20052;-62
2022/06/10 08:28:23;;;;;;;5.97;2.00;;;21.50;60.60;;;;;;5057901;28;20041;-62
2022/06/10 08:30:49;;;;;;;4.07;1.50;;;21.50;60.80;;;;;;5057525;28;20044;-62
2022/06/10 08:33:15;;;;;;;4.55;1.58;;;21.50;61.00;;;;;;5057691;28;20063;-61
2022/06/10 08:35:41;;;;;;;3.38;1.60;;;21.50;61.10;;;;;;5054030;28;20047;-62
2022/06/10 08:38:10;;;;;;;3.10;1.55;;;21.50;61.10;;;;;;5053992;28;20754;-62
2022/06/10 08:40:47;;;;;;;3.05;1.55;;;21.50;61.30;;;;;;5057841;28;20040;-62
2022/06/10 08:43:19;;;;;;;6.30;1.85;;;21.50;61.40;;;;;;5057257;28;20040;-62
2022/06/10 08:46:13;;;;;;;3.92;1.60;;;21.50;61.50;;;;;;5044800;28;20354;-61
2022/06/10 08:48:57;;;;;;;3.92;1.33;;;21.50;61.50;;;;;;5056225;28;20484;-62
2022/06/10 08:51:56;;;;;;;3.20;1.70;;;21.50;61.70;;;;;;5055699;28;20102;-62
2022/06/10 08:54:46;;;;;;;5.07;1.60;;;21.50;61.70;;;;;;5034351;28;20036;-62
2022/06/10 08:57:22;;;;;;;4.38;1.77;;;21.50;61.90;;;;;;5058212;28;20114;-62
2022/06/10 08:59:49;;;;;;;4.00;1.48;;;21.50;61.90;;;;;;5054773;28;20040;-62
2022/06/10 09:02:20;;;;;;;6.20;1.60;;;21.50;62.00;;;;;;5051218;28;20431;-62
2022/06/10 09:05:15;;;;;;;6.40;1.73;;;21.50;62.20;;;;;;5053454;28;20040;-62
2022/06/10 09:07:45;;;;;;;4.75;1.70;;;21.50;62.20;;;;;;5051112;28;20052;-61
2022/06/10 09:10:31;;;;;;;5.57;1.65;;;21.50;62.50;;;;;;5052234;28;20091;-62
2022/06/10 09:13:17;;;;;;;5.05;1.90;;;21.50;62.50;;;;;;5053997;28;20534;-62
2022/06/10 09:15:54;;;;;;;5.93;1.63;;;21.50;62.60;;;;;;5053142;28;20066;-62
2022/06/10 09:18:30;;;;;;;4.30;1.38;;;21.60;62.40;;;;;;5055003;28;20048;-62
2022/06/10 09:21:13;;;;;;;4.47;1.63;;;21.60;62.20;;;;;;5052745;28;20047;-62
2022/06/10 09:23:43;;;;;;;5.65;1.63;;;21.60;62.30;;;;;;5037449;28;20539;-62
2022/06/10 09:26:15;;;;;;;6.10;1.73;;;21.60;62.50;;;;;;5049222;28;20040;-62
2022/06/10 09:28:42;;;;;;;4.03;1.42;;;21.50;62.50;;;;;;5057592;28;20040;-61
2022/06/10 09:31:07;;;;;;;6.35;1.90;;;21.60;62.60;;;;;;5048507;28;20033;-61
2022/06/10 09:33:46;;;;;;;4.50;1.77;;;21.60;62.50;;;;;;5044471;28;20110;-61
2022/06/10 09:36:42;;;;;;;3.60;1.20;;;21.60;62.50;;;;;;5035677;28;20047;-61
2022/06/10 09:42:45;;;;;;;2.90;1.45;;;21.60;62.40;;;;;;5049835;28;20367;-61
2022/06/10 09:45:26;;;;;;;5.22;1.65;;;21.60;62.40;;;;;;5050842;28;20033;-61
2022/06/10 09:48:15;;;;;;;;;;;21.60;62.40;;;;;;5034870;28;20044;-61
2022/06/10 09:50:47;;;;;;;5.88;1.70;;;21.50;62.20;;;;;;5037959;28;19921;-61
2022/06/10 09:53:22;;;;;;;4.25;1.40;;;21.50;62.30;;;;;;5048531;28;20147;-61
2022/06/10 09:56:10;;;;;;;2.33;1.40;;;21.50;62.10;;;;;;5049968;28;20163;-62
2022/06/10 09:59:15;;;;;;;4.97;2.00;;;21.60;62.10;;;;;;5051534;28;20067;-61
2022/06/10 10:01:57;;;;;;;2.40;1.33;;;21.60;62.10;;;;;;5049811;28;20072;-62
2022/06/10 10:04:54;;;;;;;2.83;1.70;;;21.60;62.20;;;;;;5051018;28;20727;-62
2022/06/10 10:07:44;;;;;;;5.15;1.77;;;21.60;62.00;;;;;;5050848;28;20079;-62
2022/06/10 10:10:23;;;;;;;4.57;1.98;;;21.50;61.70;;;;;;5050145;28;20136;-61
2022/06/10 10:13:23;;;;;;;4.00;1.45;;;21.60;61.90;;;;;;5053483;28;20467;-63
2022/06/10 10:15:57;;;;;;;4.13;1.60;;;21.60;61.90;;;;;;5054042;28;20121;-62
2022/06/10 10:18:53;;;;;;;4.22;1.55;;;21.50;61.80;;;;;;5055316;28;20040;-62
2022/06/10 10:21:45;;;;;;;3.92;1.50;;;21.60;61.80;;;;;;5051689;28;20090;-62
2022/06/10 10:24:17;;;;;;;4.82;1.50;;;21.60;61.90;;;;;;5052453;28;20441;-62
2022/06/10 10:26:44;;;;;;;4.65;1.60;;;21.60;61.90;;;;;;5056059;28;20476;-62
2022/06/10 10:29:33;;;;;;;4.82;1.67;;;21.60;61.80;;;;;;5054174;28;20098;-62
2022/06/10 10:32:10;;;;;;;4.40;1.70;;;21.60;61.50;;;;;;5055291;28;20469;-62
2022/06/10 10:34:38;;;;;;;3.83;1.90;;;21.60;61.70;;;;;;5052452;28;20037;-62
2022/06/10 10:37:22;;;;;;;5.20;1.65;;;21.60;61.70;;;;;;5032584;28;20155;-62
2022/06/10 10:39:59;;;;;;;6.60;2.05;;;21.60;61.80;;;;;;5054032;28;20037;-62
2022/06/10 10:42:30;;;;;;;7.82;2.42;;;21.60;62.00;;;;;;5054135;28;20094;-62
2022/06/10 10:44:55;;;;;;;;;;;21.60;62.30;;;;;;5054996;28;20036;-62
2022/06/10 10:47:25;;;;;;;7.78;2.88;;;21.60;62.30;;;;;;5055572;28;19951;-62
2022/06/10 10:49:53;;;;;;;4.40;1.80;;;21.60;62.30;;;;;;5058982;28;20049;-62
2022/06/10 10:52:41;;;;;;;6.40;2.28;;;21.60;62.50;;;;;;5058470;28;20037;-62
2022/06/10 10:55:27;;;;;;;5.43;2.20;;;21.60;62.30;;;;;;5055932;28;20170;-62
2022/06/10 10:58:13;;;;;;;7.07;2.38;;;21.60;62.10;;;;;;5056289;28;20072;-62
2022/06/10 11:00:55;;;;;;;9.43;2.78;;;21.60;62.00;;;;;;5055789;28;20036;-61
2022/06/10 11:03:33;;;;;;;6.13;2.10;;;21.60;62.00;;;;;;5056739;28;20106;-62
2022/06/10 11:06:05;;;;;;;6.50;2.00;;;21.60;62.30;;;;;;5056078;28;20049;-62
2022/06/10 11:08:39;;;;;;;8.05;2.03;;;21.60;62.30;;;;;;5055071;28;20079;-62
2022/06/10 11:11:31;;;;;;;7.35;2.00;;;21.60;62.20;;;;;;5056618;28;20385;-61
2022/06/10 11:14:02;;;;;;;7.80;1.92;;;21.50;62.20;;;;;;5057205;28;20044;-61
2022/06/10 11:16:38;;;;;;;8.38;2.25;;;21.60;62.20;;;;;;5055940;28;20036;-62
2022/06/10 11:19:20;;;;;;;4.97;2.00;;;21.60;62.30;;;;;;5058200;28;20121;-62
2022/06/10 11:22:03;;;;;;;5.07;2.15;;;21.60;62.40;;;;;;5055873;28;20163;-62
2022/06/10 11:24:32;;;;;;;2.92;1.50;;;21.60;62.30;;;;;;5055686;28;20106;-62
2022/06/10 11:27:00;;;;;;;4.97;1.90;;;21.60;62.30;;;;;;5055710;28;20055;-62
2022/06/10 11:29:28;;;;;;;5.43;1.92;;;21.60;62.30;;;;;;5056567;28;20099;-62
2022/06/10 11:32:01;;;;;;;4.15;1.75;;;21.60;62.30;;;;;;5059273;28;20028;-62
2022/06/10 11:34:35;;;;;;;5.22;1.90;;;21.60;62.20;;;;;;5056479;28;20063;-62
2022/06/10 11:37:20;;;;;;;3.45;1.88;;;21.60;62.20;;;;;;5055859;28;20373;-62
2022/06/10 11:39:51;;;;;;;4.32;1.67;;;21.60;62.10;;;;;;5054803;28;20059;-62
2022/06/10 11:42:24;;;;;;;4.63;1.55;;;21.60;62.20;;;;;;5056226;28;20032;-62
2022/06/10 11:44:56;;;;;;;4.05;1.60;;;21.60;62.20;;;;;;5056534;28;20044;-62
2022/06/10 11:47:32;;;;;;;3.55;1.30;;;21.60;62.20;;;;;;5052969;28;20041;-62
2022/06/10 11:50:03;;;;;;;7.03;1.77;;;21.60;62.20;;;;;;5052968;28;20139;-62
2022/06/10 11:52:54;;;;;;;5.57;1.65;;;21.60;62.20;;;;;;5054444;28;20859;-62
2022/06/10 11:55:30;;;;;;;3.38;1.67;;;21.60;62.20;;;;;;5053837;28;20041;-62
2022/06/10 12:01:16;;;;;;;4.82;1.67;;;21.60;62.40;;;;;;5053734;28;20405;-62
2022/06/10 12:03:49;;;;;;;6.45;1.77;;;21.60;62.50;;;;;;5055461;28;20048;-62
2022/06/10 12:06:20;;;;;;;3.92;1.73;;;21.60;62.60;;;;;;5053322;28;20045;-63
2022/06/10 12:09:00;;;;;;;3.28;1.83;;;21.60;62.70;;;;;;5044865;28;20049;-62
2022/06/10 12:11:38;;;;;;;4.88;2.03;;;21.60;62.70;;;;;;5042923;28;20029;-63
2022/06/10 12:14:30;;;;;;;4.18;1.48;;;21.60;62.80;;;;;;5025772;28;20029;-61
2022/06/10 12:17:01;;;;;;;3.65;1.50;;;21.60;62.80;;;;;;5026025;28;20056;-62
2022/06/10 12:19:58;;;;;;;3.35;1.85;;;21.60;62.80;;;;;;5035533;28;20803;-63
2022/06/10 12:22:27;;;;;;;3.22;1.60;;;21.60;62.60;;;;;;5049245;28;20065;-62
2022/06/10 12:24:55;;;;;;;5.22;1.67;;;21.60;62.60;;;;;;5056906;28;20076;-62
2022/06/10 12:27:41;;;;;;;7.38;1.70;;;21.60;62.40;;;;;;5057039;28;20226;-62
2022/06/10 12:30:14;;;;;;;6.03;1.60;;;21.60;62.30;;;;;;5055622;28;20037;-62
2022/06/10 12:33:05;;;;;;;4.53;1.60;;;21.70;62.40;;;;;;5053734;28;20049;-62
2022/06/10 12:35:34;;;;;;;11.60;1.50;;;21.60;62.30;;;;;;5052854;28;20091;-62
2022/06/10 12:38:03;;;;;;;3.38;1.40;;;21.60;62.30;;;;;;5055699;28;20044;-62
2022/06/10 12:40:43;;;;;;;4.07;1.48;;;21.70;62.30;;;;;;5053472;28;20040;-62
2022/06/10 12:43:20;;;;;;;3.78;1.50;;;21.70;62.30;;;;;;5037563;28;20078;-62
2022/06/10 12:45:56;;;;;;;3.40;1.40;;;21.60;62.20;;;;;;5036793;28;20048;-62
2022/06/10 12:48:42;;;;;;;3.47;1.58;;;21.70;62.10;;;;;;5053847;28;20044;-62
2022/06/10 12:51:22;;;;;;;3.15;1.40;;;21.70;62.10;;;;;;5048615;28;20397;-62
2022/06/10 12:54:17;;;;;;;3.97;1.58;;;21.60;62.10;;;;;;5053769;28;20051;-62
2022/06/10 12:56:42;;;;;;;4.82;1.40;;;21.70;62.00;;;;;;5057387;28;20032;-62
2022/06/10 12:59:10;;;;;;;4.97;1.70;;;21.60;62.00;;;;;;5039158;28;20487;-62
2022/06/10 13:01:36;;;;;;;4.50;1.63;;;21.60;62.00;;;;;;5051630;28;20131;-62
2022/06/10 13:04:10;;;;;;;3.42;1.70;;;21.60;62.00;;;;;;5043475;28;20127;-62
2022/06/10 13:06:42;;;;;;;4.00;1.55;;;21.60;61.90;;;;;;5048801;28;20036;-62
2022/06/10 13:09:10;;;;;;;3.00;1.48;;;21.70;61.90;;;;;;5053128;28;20045;-62
2022/06/10 13:12:04;;;;;;;3.55;1.60;;;21.70;61.90;;;;;;5053373;28;20465;-62
2022/06/10 13:14:30;;;;;;;3.88;1.67;;;21.60;61.90;;;;;;5026679;28;20405;-63
2022/06/10 13:16:58;;;;;;;4.38;1.70;;;21.70;62.30;;;;;;5050915;28;20044;-62
2022/06/10 13:19:33;;;;;;;5.07;1.83;;;21.70;62.30;;;;;;5030169;28;20068;-62
2022/06/10 13:22:19;;;;;;;2.92;1.50;;;21.70;62.60;;;;;;5044351;28;20127;-62
2022/06/10 13:25:05;;;;;;;5.97;1.88;;;21.70;62.70;;;;;;5053951;28;20067;-62
2022/06/10 13:27:48;;;;;;;5.07;1.73;;;21.70;62.80;;;;;;5039263;28;20493;-62
2022/06/10 13:30:24;;;;;;;3.55;1.63;;;21.70;62.80;;;;;;5053146;28;20090;-62
2022/06/10 13:33:11;;;;;;;3.55;1.73;;;21.70;62.70;;;;;;5055373;28;20049;-62
2022/06/10 13:35:50;;;;;;;3.22;1.80;;;21.70;62.60;;;;;;5055566;28;20040;-63
2022/06/10 13:38:17;;;;;;;4.03;1.75;;;21.70;62.80;;;;;;5051744;28;20064;-63
2022/06/10 13:40:52;;;;;;;5.05;1.90;;;21.70;62.90;;;;;;5038560;28;20095;-63